Main page
METAR-TAF:

METAR-TAF

Airports :

Béziers, France

Béziers Cap d'Agde Airport

latitude: 43-19N, longitude: 003-21E, elevation: 17 m

Current weather observation

The report was made 14 minutes ago, at 07:00 UTC
Wind 5 kt from the West
Temperature 6°C
Humidity 75%
Pressure 1023 hPa
Visibility 10 km or more
Overcast at a height of 4200 ft

METAR: LFMU 180700Z AUTO 27005KT 9999 OVC042 06/02 Q1023 NOSIG

Time: 08:14 (07:14 UTC)

Forecast

The report was made 5 hours and 14 minutes ago, at 02:00 UTC
Forecast valid from 18 at 03 UTC to 19 at 03 UTC
Wind 10 kt from the West/Northwest
Visibility 10 km or more
no clouds below 1500 m and no cumulonimbus

TAF: LFMU 180200Z 1803/1903 30010KT CAVOK

Weather observations and forecasts of more than 4000 airports (METAR and TAF reports).

The available stations are represented by yellow and red dots on the map.

Hover mouse over dot to see the name of the station.

Then click to see weather observations and forecasts.

To change the map : click on the green buttons with a black cross to zoom in, on the green button with a dash to zoom out, or on the green arrows for adjacent maps.


METAR-TAF: